sensor_id;sensor_type;location;lat;lon;timestamp;P1;durP1;ratioP1;P2;durP2;ratioP2
42944;SDS011;28584;42.636;23.294;2023-07-31T00:02:19;7.57;;;6.65;;
42944;SDS011;28584;42.636;23.294;2023-07-31T00:04:44;6.70;;;6.07;;
42944;SDS011;28584;42.636;23.294;2023-07-31T00:07:10;8.00;;;7.28;;
42944;SDS011;28584;42.636;23.294;2023-07-31T00:09:36;7.63;;;6.95;;
42944;SDS011;28584;42.636;23.294;2023-07-31T00:12:01;8.15;;;6.82;;
42944;SDS011;28584;42.636;23.294;2023-07-31T00:14:27;8.35;;;6.75;;
42944;SDS011;28584;42.636;23.294;2023-07-31T00:16:52;8.02;;;7.32;;
42944;SDS011;28584;42.636;23.294;2023-07-31T00:19:17;7.25;;;6.50;;
42944;SDS011;28584;42.636;23.294;2023-07-31T00:21:44;7.43;;;6.75;;
42944;SDS011;28584;42.636;23.294;2023-07-31T00:24:09;7.25;;;6.43;;
42944;SDS011;28584;42.636;23.294;2023-07-31T00:26:35;7.13;;;6.50;;
42944;SDS011;28584;42.636;23.294;2023-07-31T00:29:00;6.75;;;5.55;;
42944;SDS011;28584;42.636;23.294;2023-07-31T00:31:26;6.70;;;6.07;;
42944;SDS011;28584;42.636;23.294;2023-07-31T00:33:51;6.75;;;6.15;;
42944;SDS011;28584;42.636;23.294;2023-07-31T00:36:17;7.55;;;6.78;;
42944;SDS011;28584;42.636;23.294;2023-07-31T00:38:43;8.23;;;6.78;;
42944;SDS011;28584;42.636;23.294;2023-07-31T00:41:08;7.70;;;6.30;;
42944;SDS011;28584;42.636;23.294;2023-07-31T00:43:34;7.68;;;6.68;;
42944;SDS011;28584;42.636;23.294;2023-07-31T00:45:59;6.90;;;6.25;;
42944;SDS011;28584;42.636;23.294;2023-07-31T00:48:25;7.32;;;6.60;;
42944;SDS011;28584;42.636;23.294;2023-07-31T00:50:50;7.57;;;6.75;;
42944;SDS011;28584;42.636;23.294;2023-07-31T00:53:16;9.90;;;8.93;;
42944;SDS011;28584;42.636;23.294;2023-07-31T00:55:42;11.80;;;10.60;;
42944;SDS011;28584;42.636;23.294;2023-07-31T00:58:08;12.32;;;11.13;;
42944;SDS011;28584;42.636;23.294;2023-07-31T01:00:33;12.55;;;11.40;;
42944;SDS011;28584;42.636;23.294;2023-07-31T01:02:59;14.27;;;12.85;;
42944;SDS011;28584;42.636;23.294;2023-07-31T01:05:29;16.83;;;15.23;;
42944;SDS011;28584;42.636;23.294;2023-07-31T01:08:29;16.90;;;15.30;;
42944;SDS011;28584;42.636;23.294;2023-07-31T01:11:52;20.48;;;18.38;;
42944;SDS011;28584;42.636;23.294;2023-07-31T01:14:03;24.63;;;22.15;;
42944;SDS011;28584;42.636;23.294;2023-07-31T01:16:29;26.42;;;23.73;;
42944;SDS011;28584;42.636;23.294;2023-07-31T01:18:54;29.13;;;25.70;;
42944;SDS011;28584;42.636;23.294;2023-07-31T01:21:30;27.85;;;25.02;;
42944;SDS011;28584;42.636;23.294;2023-07-31T01:27:01;27.95;;;25.05;;
42944;SDS011;28584;42.636;23.294;2023-07-31T01:32:25;31.50;;;28.13;;
42944;SDS011;28584;42.636;23.294;2023-07-31T01:34:53;34.22;;;30.52;;
42944;SDS011;28584;42.636;23.294;2023-07-31T01:37:20;33.10;;;29.60;;
42944;SDS011;28584;42.636;23.294;2023-07-31T01:39:45;36.40;;;32.60;;
42944;SDS011;28584;42.636;23.294;2023-07-31T01:42:10;38.65;;;34.65;;
42944;SDS011;28584;42.636;23.294;2023-07-31T01:44:36;37.92;;;32.60;;
42944;SDS011;28584;42.636;23.294;2023-07-31T01:47:01;38.38;;;34.28;;
42944;SDS011;28584;42.636;23.294;2023-07-31T01:49:27;41.20;;;36.70;;
42944;SDS011;28584;42.636;23.294;2023-07-31T01:51:52;43.60;;;39.03;;
42944;SDS011;28584;42.636;23.294;2023-07-31T01:54:17;42.10;;;37.67;;
42944;SDS011;28584;42.636;23.294;2023-07-31T01:56:43;40.63;;;36.35;;
42944;SDS011;28584;42.636;23.294;2023-07-31T01:59:08;42.40;;;37.83;;
42944;SDS011;28584;42.636;23.294;2023-07-31T02:01:33;44.47;;;38.95;;
42944;SDS011;28584;42.636;23.294;2023-07-31T02:03:59;41.75;;;37.08;;
42944;SDS011;28584;42.636;23.294;2023-07-31T02:06:24;45.22;;;38.83;;
42944;SDS011;28584;42.636;23.294;2023-07-31T02:08:50;40.50;;;36.05;;
42944;SDS011;28584;42.636;23.294;2023-07-31T02:11:15;42.50;;;37.63;;
42944;SDS011;28584;42.636;23.294;2023-07-31T02:13:41;37.78;;;33.65;;
42944;SDS011;28584;42.636;23.294;2023-07-31T02:16:06;40.65;;;36.25;;
42944;SDS011;28584;42.636;23.294;2023-07-31T02:18:32;40.65;;;35.38;;
42944;SDS011;28584;42.636;23.294;2023-07-31T02:20:57;40.30;;;35.58;;
42944;SDS011;28584;42.636;23.294;2023-07-31T02:23:22;37.50;;;33.45;;
42944;SDS011;28584;42.636;23.294;2023-07-31T02:25:48;37.90;;;33.28;;
42944;SDS011;28584;42.636;23.294;2023-07-31T02:28:13;37.05;;;32.85;;
42944;SDS011;28584;42.636;23.294;2023-07-31T02:30:39;36.88;;;32.97;;
42944;SDS011;28584;42.636;23.294;2023-07-31T02:33:04;37.08;;;33.08;;
42944;SDS011;28584;42.636;23.294;2023-07-31T02:35:31;35.15;;;31.45;;
42944;SDS011;28584;42.636;23.294;2023-07-31T02:37:57;39.50;;;35.30;;
42944;SDS011;28584;42.636;23.294;2023-07-31T02:40:22;36.58;;;32.65;;
42944;SDS011;28584;42.636;23.294;2023-07-31T02:42:48;35.95;;;32.25;;
42944;SDS011;28584;42.636;23.294;2023-07-31T02:45:14;38.08;;;34.00;;
42944;SDS011;28584;42.636;23.294;2023-07-31T02:47:39;37.85;;;33.83;;
42944;SDS011;28584;42.636;23.294;2023-07-31T02:50:04;36.90;;;33.03;;
42944;SDS011;28584;42.636;23.294;2023-07-31T02:52:30;36.67;;;32.97;;
42944;SDS011;28584;42.636;23.294;2023-07-31T02:54:56;36.40;;;31.95;;
42944;SDS011;28584;42.636;23.294;2023-07-31T02:57:22;36.63;;;32.83;;
42944;SDS011;28584;42.636;23.294;2023-07-31T02:59:47;36.15;;;32.45;;
42944;SDS011;28584;42.636;23.294;2023-07-31T03:02:13;37.15;;;33.35;;
42944;SDS011;28584;42.636;23.294;2023-07-31T03:04:39;34.42;;;30.73;;
42944;SDS011;28584;42.636;23.294;2023-07-31T03:07:04;32.92;;;29.15;;
42944;SDS011;28584;42.636;23.294;2023-07-31T03:09:30;33.65;;;30.15;;
42944;SDS011;28584;42.636;23.294;2023-07-31T03:11:56;34.10;;;30.42;;
42944;SDS011;28584;42.636;23.294;2023-07-31T03:14:21;34.15;;;30.55;;
42944;SDS011;28584;42.636;23.294;2023-07-31T03:16:46;33.85;;;30.08;;
42944;SDS011;28584;42.636;23.294;2023-07-31T03:19:12;33.92;;;29.23;;
42944;SDS011;28584;42.636;23.294;2023-07-31T03:21:38;34.55;;;29.60;;
42944;SDS011;28584;42.636;23.294;2023-07-31T03:24:04;35.65;;;31.88;;
42944;SDS011;28584;42.636;23.294;2023-07-31T03:26:31;32.95;;;29.45;;
42944;SDS011;28584;42.636;23.294;2023-07-31T03:28:56;36.08;;;32.15;;
42944;SDS011;28584;42.636;23.294;2023-07-31T03:31:22;36.60;;;32.05;;
42944;SDS011;28584;42.636;23.294;2023-07-31T03:33:47;37.92;;;32.78;;
42944;SDS011;28584;42.636;23.294;2023-07-31T03:36:12;38.30;;;31.02;;
42944;SDS011;28584;42.636;23.294;2023-07-31T03:38:38;38.10;;;32.92;;
42944;SDS011;28584;42.636;23.294;2023-07-31T03:41:03;41.15;;;33.15;;
42944;SDS011;28584;42.636;23.294;2023-07-31T03:43:31;37.47;;;33.00;;
42944;SDS011;28584;42.636;23.294;2023-07-31T03:45:58;35.78;;;31.58;;
42944;SDS011;28584;42.636;23.294;2023-07-31T03:48:23;40.58;;;32.42;;
42944;SDS011;28584;42.636;23.294;2023-07-31T03:50:48;36.83;;;32.15;;
42944;SDS011;28584;42.636;23.294;2023-07-31T03:53:14;38.08;;;33.22;;
42944;SDS011;28584;42.636;23.294;2023-07-31T03:55:39;40.80;;;33.25;;
42944;SDS011;28584;42.636;23.294;2023-07-31T03:58:05;37.40;;;32.30;;
42944;SDS011;28584;42.636;23.294;2023-07-31T04:00:30;37.47;;;33.15;;
42944;SDS011;28584;42.636;23.294;2023-07-31T04:02:56;40.13;;;32.83;;
42944;SDS011;28584;42.636;23.294;2023-07-31T04:05:21;38.03;;;32.55;;
42944;SDS011;28584;42.636;23.294;2023-07-31T04:07:46;35.80;;;30.70;;
42944;SDS011;28584;42.636;23.294;2023-07-31T04:10:12;37.55;;;30.70;;
42944;SDS011;28584;42.636;23.294;2023-07-31T04:12:37;38.03;;;32.63;;
42944;SDS011;28584;42.636;23.294;2023-07-31T04:15:03;39.03;;;30.50;;
42944;SDS011;28584;42.636;23.294;2023-07-31T04:17:28;34.28;;;28.70;;
42944;SDS011;28584;42.636;23.294;2023-07-31T04:19:54;33.58;;;28.88;;
42944;SDS011;28584;42.636;23.294;2023-07-31T04:22:19;32.03;;;28.38;;
42944;SDS011;28584;42.636;23.294;2023-07-31T04:24:44;32.28;;;28.80;;
42944;SDS011;28584;42.636;23.294;2023-07-31T04:27:10;36.80;;;28.60;;
42944;SDS011;28584;42.636;23.294;2023-07-31T04:29:35;30.90;;;27.00;;
42944;SDS011;28584;42.636;23.294;2023-07-31T04:32:01;30.48;;;27.08;;
42944;SDS011;28584;42.636;23.294;2023-07-31T04:34:26;31.30;;;26.45;;
42944;SDS011;28584;42.636;23.294;2023-07-31T04:36:51;30.17;;;25.65;;
42944;SDS011;28584;42.636;23.294;2023-07-31T04:39:17;27.10;;;24.20;;
42944;SDS011;28584;42.636;23.294;2023-07-31T04:41:42;27.17;;;24.27;;
42944;SDS011;28584;42.636;23.294;2023-07-31T04:44:08;25.92;;;23.17;;
42944;SDS011;28584;42.636;23.294;2023-07-31T04:46:33;26.30;;;23.50;;
42944;SDS011;28584;42.636;23.294;2023-07-31T04:48:59;23.20;;;20.65;;
42944;SDS011;28584;42.636;23.294;2023-07-31T04:51:24;23.58;;;20.58;;
42944;SDS011;28584;42.636;23.294;2023-07-31T04:53:50;23.08;;;20.58;;
42944;SDS011;28584;42.636;23.294;2023-07-31T04:56:15;22.10;;;19.83;;
42944;SDS011;28584;42.636;23.294;2023-07-31T04:58:41;22.58;;;20.33;;
42944;SDS011;28584;42.636;23.294;2023-07-31T05:01:06;22.63;;;20.23;;
42944;SDS011;28584;42.636;23.294;2023-07-31T05:03:32;21.05;;;18.92;;
42944;SDS011;28584;42.636;23.294;2023-07-31T05:05:57;20.67;;;18.33;;
42944;SDS011;28584;42.636;23.294;2023-07-31T05:08:23;20.38;;;17.83;;
42944;SDS011;28584;42.636;23.294;2023-07-31T05:10:48;20.65;;;18.55;;
42944;SDS011;28584;42.636;23.294;2023-07-31T05:13:13;16.50;;;14.75;;
42944;SDS011;28584;42.636;23.294;2023-07-31T05:15:40;17.50;;;15.70;;
42944;SDS011;28584;42.636;23.294;2023-07-31T05:18:06;17.17;;;15.50;;
42944;SDS011;28584;42.636;23.294;2023-07-31T05:20:31;17.98;;;15.80;;
42944;SDS011;28584;42.636;23.294;2023-07-31T05:22:57;14.80;;;13.50;;
42944;SDS011;28584;42.636;23.294;2023-07-31T05:25:22;15.38;;;13.88;;
42944;SDS011;28584;42.636;23.294;2023-07-31T05:27:47;14.05;;;12.65;;
42944;SDS011;28584;42.636;23.294;2023-07-31T05:30:13;14.82;;;13.43;;
42944;SDS011;28584;42.636;23.294;2023-07-31T05:32:38;15.57;;;14.07;;
42944;SDS011;28584;42.636;23.294;2023-07-31T05:35:04;15.02;;;13.45;;
42944;SDS011;28584;42.636;23.294;2023-07-31T05:37:30;15.65;;;14.02;;
42944;SDS011;28584;42.636;23.294;2023-07-31T05:39:55;15.50;;;13.90;;
42944;SDS011;28584;42.636;23.294;2023-07-31T05:42:21;13.30;;;11.98;;
42944;SDS011;28584;42.636;23.294;2023-07-31T05:44:47;14.43;;;13.02;;
42944;SDS011;28584;42.636;23.294;2023-07-31T05:47:12;13.02;;;11.82;;
42944;SDS011;28584;42.636;23.294;2023-07-31T05:49:38;12.40;;;11.30;;
42944;SDS011;28584;42.636;23.294;2023-07-31T05:52:03;13.05;;;11.75;;
42944;SDS011;28584;42.636;23.294;2023-07-31T05:54:29;12.20;;;11.10;;
42944;SDS011;28584;42.636;23.294;2023-07-31T05:56:55;11.23;;;10.18;;
42944;SDS011;28584;42.636;23.294;2023-07-31T05:59:20;9.93;;;8.93;;
42944;SDS011;28584;42.636;23.294;2023-07-31T06:01:45;10.57;;;9.48;;
42944;SDS011;28584;42.636;23.294;2023-07-31T06:04:11;9.25;;;8.43;;
42944;SDS011;28584;42.636;23.294;2023-07-31T06:06:37;10.48;;;9.38;;
42944;SDS011;28584;42.636;23.294;2023-07-31T06:09:02;11.48;;;8.98;;
42944;SDS011;28584;42.636;23.294;2023-07-31T06:11:28;9.35;;;8.45;;
42944;SDS011;28584;42.636;23.294;2023-07-31T06:13:55;9.32;;;8.10;;
42944;SDS011;28584;42.636;23.294;2023-07-31T06:16:21;8.43;;;7.72;;
42944;SDS011;28584;42.636;23.294;2023-07-31T06:18:46;8.60;;;7.80;;
42944;SDS011;28584;42.636;23.294;2023-07-31T06:21:12;8.57;;;7.78;;
42944;SDS011;28584;42.636;23.294;2023-07-31T06:23:38;7.85;;;7.15;;
42944;SDS011;28584;42.636;23.294;2023-07-31T06:26:03;8.55;;;7.75;;
42944;SDS011;28584;42.636;23.294;2023-07-31T06:28:29;6.95;;;6.35;;
42944;SDS011;28584;42.636;23.294;2023-07-31T06:30:55;8.27;;;5.88;;
42944;SDS011;28584;42.636;23.294;2023-07-31T06:33:21;8.25;;;6.65;;
42944;SDS011;28584;42.636;23.294;2023-07-31T06:35:46;5.72;;;5.22;;
42944;SDS011;28584;42.636;23.294;2023-07-31T06:38:11;5.43;;;4.93;;
42944;SDS011;28584;42.636;23.294;2023-07-31T06:40:37;6.68;;;4.68;;
42944;SDS011;28584;42.636;23.294;2023-07-31T06:43:03;4.88;;;4.47;;
42944;SDS011;28584;42.636;23.294;2023-07-31T06:45:33;5.95;;;5.38;;
42944;SDS011;28584;42.636;23.294;2023-07-31T06:48:00;5.65;;;5.15;;
42944;SDS011;28584;42.636;23.294;2023-07-31T06:50:27;6.70;;;5.78;;
42944;SDS011;28584;42.636;23.294;2023-07-31T06:52:56;6.30;;;5.63;;
42944;SDS011;28584;42.636;23.294;2023-07-31T06:55:21;5.18;;;4.68;;
42944;SDS011;28584;42.636;23.294;2023-07-31T06:57:48;5.47;;;4.90;;
42944;SDS011;28584;42.636;23.294;2023-07-31T07:00:15;5.40;;;4.68;;
42944;SDS011;28584;42.636;23.294;2023-07-31T07:02:41;5.32;;;4.82;;
42944;SDS011;28584;42.636;23.294;2023-07-31T07:05:06;5.25;;;4.75;;
42944;SDS011;28584;42.636;23.294;2023-07-31T07:07:33;4.88;;;4.47;;
42944;SDS011;28584;42.636;23.294;2023-07-31T07:09:58;4.60;;;4.20;;
42944;SDS011;28584;42.636;23.294;2023-07-31T07:12:29;4.60;;;4.20;;
42944;SDS011;28584;42.636;23.294;2023-07-31T07:14:55;4.57;;;4.18;;
42944;SDS011;28584;42.636;23.294;2023-07-31T07:17:20;5.00;;;4.38;;
42944;SDS011;28584;42.636;23.294;2023-07-31T07:19:47;4.70;;;3.28;;
42944;SDS011;28584;42.636;23.294;2023-07-31T07:22:13;4.78;;;4.00;;
42944;SDS011;28584;42.636;23.294;2023-07-31T07:24:38;5.13;;;3.47;;
42944;SDS011;28584;42.636;23.294;2023-07-31T07:27:04;6.15;;;3.83;;
42944;SDS011;28584;42.636;23.294;2023-07-31T07:29:29;3.63;;;3.33;;
42944;SDS011;28584;42.636;23.294;2023-07-31T07:31:55;3.45;;;3.13;;
42944;SDS011;28584;42.636;23.294;2023-07-31T07:34:22;4.97;;;3.47;;
42944;SDS011;28584;42.636;23.294;2023-07-31T07:36:49;4.47;;;3.13;;
42944;SDS011;28584;42.636;23.294;2023-07-31T07:39:14;3.35;;;3.05;;
42944;SDS011;28584;42.636;23.294;2023-07-31T07:41:40;4.28;;;3.42;;
42944;SDS011;28584;42.636;23.294;2023-07-31T07:44:05;4.15;;;2.78;;
42944;SDS011;28584;42.636;23.294;2023-07-31T07:46:31;3.97;;;3.55;;
42944;SDS011;28584;42.636;23.294;2023-07-31T07:48:56;4.65;;;3.33;;
42944;SDS011;28584;42.636;23.294;2023-07-31T07:51:22;4.20;;;3.75;;
42944;SDS011;28584;42.636;23.294;2023-07-31T07:53:47;3.85;;;3.47;;
42944;SDS011;28584;42.636;23.294;2023-07-31T07:56:12;3.47;;;2.85;;
42944;SDS011;28584;42.636;23.294;2023-07-31T07:58:38;3.65;;;3.08;;
42944;SDS011;28584;42.636;23.294;2023-07-31T08:01:03;3.60;;;3.30;;
42944;SDS011;28584;42.636;23.294;2023-07-31T08:03:29;3.28;;;2.65;;
42944;SDS011;28584;42.636;23.294;2023-07-31T08:05:57;4.32;;;3.05;;
42944;SDS011;28584;42.636;23.294;2023-07-31T08:08:26;5.35;;;3.22;;
42944;SDS011;28584;42.636;23.294;2023-07-31T08:10:52;3.92;;;2.80;;
42944;SDS011;28584;42.636;23.294;2023-07-31T08:13:18;6.10;;;3.22;;
42944;SDS011;28584;42.636;23.294;2023-07-31T08:15:43;3.40;;;2.70;;
42944;SDS011;28584;42.636;23.294;2023-07-31T08:18:09;2.90;;;2.67;;
42944;SDS011;28584;42.636;23.294;2023-07-31T08:20:35;4.03;;;3.25;;
42944;SDS011;28584;42.636;23.294;2023-07-31T08:23:00;3.22;;;2.72;;
42944;SDS011;28584;42.636;23.294;2023-07-31T08:25:26;3.63;;;2.92;;
42944;SDS011;28584;42.636;23.294;2023-07-31T08:27:52;3.40;;;3.10;;
42944;SDS011;28584;42.636;23.294;2023-07-31T08:30:18;3.20;;;2.90;;
42944;SDS011;28584;42.636;23.294;2023-07-31T08:32:44;5.10;;;3.10;;
42944;SDS011;28584;42.636;23.294;2023-07-31T08:35:09;4.50;;;2.95;;
42944;SDS011;28584;42.636;23.294;2023-07-31T08:37:35;3.38;;;2.85;;
42944;SDS011;28584;42.636;23.294;2023-07-31T08:40:00;3.30;;;3.00;;
42944;SDS011;28584;42.636;23.294;2023-07-31T08:42:26;2.80;;;2.60;;
42944;SDS011;28584;42.636;23.294;2023-07-31T08:44:51;4.50;;;2.80;;
42944;SDS011;28584;42.636;23.294;2023-07-31T08:47:17;3.25;;;2.95;;
42944;SDS011;28584;42.636;23.294;2023-07-31T08:49:45;3.47;;;3.00;;
42944;SDS011;28584;42.636;23.294;2023-07-31T08:52:12;4.70;;;3.25;;
42944;SDS011;28584;42.636;23.294;2023-07-31T08:54:37;6.65;;;3.55;;
42944;SDS011;28584;42.636;23.294;2023-07-31T08:57:03;3.90;;;3.58;;
42944;SDS011;28584;42.636;23.294;2023-07-31T08:59:30;4.15;;;3.13;;
42944;SDS011;28584;42.636;23.294;2023-07-31T09:01:57;3.80;;;3.40;;
42944;SDS011;28584;42.636;23.294;2023-07-31T09:04:30;3.67;;;3.20;;
42944;SDS011;28584;42.636;23.294;2023-07-31T09:06:57;7.10;;;3.20;;
42944;SDS011;28584;42.636;23.294;2023-07-31T09:09:25;3.15;;;2.75;;
42944;SDS011;28584;42.636;23.294;2023-07-31T09:11:51;2.95;;;2.60;;
42944;SDS011;28584;42.636;23.294;2023-07-31T09:14:17;3.28;;;2.97;;
42944;SDS011;28584;42.636;23.294;2023-07-31T09:16:56;5.55;;;3.28;;
42944;SDS011;28584;42.636;23.294;2023-07-31T09:19:32;2.90;;;2.70;;
42944;SDS011;28584;42.636;23.294;2023-07-31T09:21:59;2.88;;;2.67;;
42944;SDS011;28584;42.636;23.294;2023-07-31T09:24:25;3.60;;;3.20;;
42944;SDS011;28584;42.636;23.294;2023-07-31T09:26:53;5.05;;;3.80;;
42944;SDS011;28584;42.636;23.294;2023-07-31T09:29:20;5.53;;;2.80;;
42944;SDS011;28584;42.636;23.294;2023-07-31T09:31:45;2.90;;;2.63;;
42944;SDS011;28584;42.636;23.294;2023-07-31T09:34:11;3.60;;;3.30;;
42944;SDS011;28584;42.636;23.294;2023-07-31T09:36:41;3.88;;;3.58;;
42944;SDS011;28584;42.636;23.294;2023-07-31T09:39:08;3.35;;;3.05;;
42944;SDS011;28584;42.636;23.294;2023-07-31T09:41:42;2.90;;;2.60;;
42944;SDS011;28584;42.636;23.294;2023-07-31T09:44:09;3.80;;;3.22;;
42944;SDS011;28584;42.636;23.294;2023-07-31T09:46:35;5.15;;;2.80;;
42944;SDS011;28584;42.636;23.294;2023-07-31T09:49:12;5.75;;;2.97;;
42944;SDS011;28584;42.636;23.294;2023-07-31T09:51:39;4.00;;;3.10;;
42944;SDS011;28584;42.636;23.294;2023-07-31T09:54:12;3.83;;;3.17;;
42944;SDS011;28584;42.636;23.294;2023-07-31T09:56:46;4.10;;;2.95;;
42944;SDS011;28584;42.636;23.294;2023-07-31T09:59:13;3.58;;;2.75;;
42944;SDS011;28584;42.636;23.294;2023-07-31T10:01:43;4.35;;;2.58;;
42944;SDS011;28584;42.636;23.294;2023-07-31T10:04:11;3.25;;;2.95;;
42944;SDS011;28584;42.636;23.294;2023-07-31T10:06:38;2.65;;;2.42;;
42944;SDS011;28584;42.636;23.294;2023-07-31T10:09:05;3.78;;;2.47;;
42944;SDS011;28584;42.636;23.294;2023-07-31T10:11:38;2.90;;;2.70;;
42944;SDS011;28584;42.636;23.294;2023-07-31T10:14:09;2.10;;;1.90;;
42944;SDS011;28584;42.636;23.294;2023-07-31T10:16:37;4.78;;;2.58;;
42944;SDS011;28584;42.636;23.294;2023-07-31T10:19:03;2.85;;;2.08;;
42944;SDS011;28584;42.636;23.294;2023-07-31T10:21:31;2.90;;;2.22;;
42944;SDS011;28584;42.636;23.294;2023-07-31T10:24:00;3.97;;;2.70;;
42944;SDS011;28584;42.636;23.294;2023-07-31T10:26:28;2.58;;;2.38;;
42944;SDS011;28584;42.636;23.294;2023-07-31T10:28:55;2.65;;;2.05;;
42944;SDS011;28584;42.636;23.294;2023-07-31T10:31:22;2.17;;;1.98;;
42944;SDS011;28584;42.636;23.294;2023-07-31T10:33:49;3.15;;;2.15;;
42944;SDS011;28584;42.636;23.294;2023-07-31T10:36:17;3.65;;;2.47;;
42944;SDS011;28584;42.636;23.294;2023-07-31T10:38:44;6.00;;;2.72;;
42944;SDS011;28584;42.636;23.294;2023-07-31T10:41:09;2.97;;;2.10;;
42944;SDS011;28584;42.636;23.294;2023-07-31T10:43:36;2.50;;;2.30;;
42944;SDS011;28584;42.636;23.294;2023-07-31T10:46:06;2.97;;;2.20;;
42944;SDS011;28584;42.636;23.294;2023-07-31T10:48:37;2.72;;;2.38;;
42944;SDS011;28584;42.636;23.294;2023-07-31T10:51:10;2.53;;;2.33;;
42944;SDS011;28584;42.636;23.294;2023-07-31T10:53:41;2.67;;;2.47;;
42944;SDS011;28584;42.636;23.294;2023-07-31T10:56:08;2.40;;;2.20;;
42944;SDS011;28584;42.636;23.294;2023-07-31T10:58:37;4.45;;;2.47;;
42944;SDS011;28584;42.636;23.294;2023-07-31T11:01:03;4.43;;;2.45;;
42944;SDS011;28584;42.636;23.294;2023-07-31T11:03:43;3.03;;;2.10;;
42944;SDS011;28584;42.636;23.294;2023-07-31T11:06:11;4.20;;;2.30;;
42944;SDS011;28584;42.636;23.294;2023-07-31T11:08:44;2.45;;;2.00;;
42944;SDS011;28584;42.636;23.294;2023-07-31T11:11:11;2.38;;;1.60;;
42944;SDS011;28584;42.636;23.294;2023-07-31T11:16:18;3.83;;;2.17;;
42944;SDS011;28584;42.636;23.294;2023-07-31T11:18:45;1.85;;;1.75;;
42944;SDS011;28584;42.636;23.294;2023-07-31T11:21:17;2.05;;;1.85;;
42944;SDS011;28584;42.636;23.294;2023-07-31T11:23:49;2.10;;;1.90;;
42944;SDS011;28584;42.636;23.294;2023-07-31T11:26:16;2.75;;;1.73;;
42944;SDS011;28584;42.636;23.294;2023-07-31T11:28:43;1.75;;;1.65;;
42944;SDS011;28584;42.636;23.294;2023-07-31T11:31:11;4.30;;;1.63;;
42944;SDS011;28584;42.636;23.294;2023-07-31T11:33:37;2.53;;;2.15;;
42944;SDS011;28584;42.636;23.294;2023-07-31T11:36:02;1.92;;;1.80;;
42944;SDS011;28584;42.636;23.294;2023-07-31T11:38:29;6.03;;;2.30;;
42944;SDS011;28584;42.636;23.294;2023-07-31T11:40:59;3.42;;;2.08;;
42944;SDS011;28584;42.636;23.294;2023-07-31T11:43:30;2.33;;;2.13;;
42944;SDS011;28584;42.636;23.294;2023-07-31T11:45:57;2.90;;;2.05;;
42944;SDS011;28584;42.636;23.294;2023-07-31T11:48:28;4.45;;;2.40;;
42944;SDS011;28584;42.636;23.294;2023-07-31T11:50:59;2.63;;;2.42;;
42944;SDS011;28584;42.636;23.294;2023-07-31T11:53:28;5.55;;;3.03;;
42944;SDS011;28584;42.636;23.294;2023-07-31T11:55:59;3.17;;;2.72;;
42944;SDS011;28584;42.636;23.294;2023-07-31T11:58:26;2.75;;;2.50;;
42944;SDS011;28584;42.636;23.294;2023-07-31T12:00:52;3.17;;;2.58;;
42944;SDS011;28584;42.636;23.294;2023-07-31T12:03:19;4.32;;;2.97;;
42944;SDS011;28584;42.636;23.294;2023-07-31T12:05:46;3.13;;;2.78;;
42944;SDS011;28584;42.636;23.294;2023-07-31T12:08:12;2.80;;;2.58;;
42944;SDS011;28584;42.636;23.294;2023-07-31T12:10:38;3.88;;;3.00;;
42944;SDS011;28584;42.636;23.294;2023-07-31T12:13:09;4.75;;;3.38;;
42944;SDS011;28584;42.636;23.294;2023-07-31T12:15:41;3.50;;;3.20;;
42944;SDS011;28584;42.636;23.294;2023-07-31T12:18:12;4.10;;;3.38;;
42944;SDS011;28584;42.636;23.294;2023-07-31T12:20:42;5.13;;;3.88;;
42944;SDS011;28584;42.636;23.294;2023-07-31T12:23:20;5.50;;;4.15;;
42944;SDS011;28584;42.636;23.294;2023-07-31T12:26:03;6.55;;;4.50;;
42944;SDS011;28584;42.636;23.294;2023-07-31T12:28:36;5.07;;;4.40;;
42944;SDS011;28584;42.636;23.294;2023-07-31T12:31:03;5.72;;;4.85;;
42944;SDS011;28584;42.636;23.294;2023-07-31T12:33:36;5.68;;;5.18;;
42944;SDS011;28584;42.636;23.294;2023-07-31T12:36:06;7.68;;;6.40;;
42944;SDS011;28584;42.636;23.294;2023-07-31T12:38:33;7.63;;;6.32;;
42944;SDS011;28584;42.636;23.294;2023-07-31T12:40:58;6.07;;;5.57;;
42944;SDS011;28584;42.636;23.294;2023-07-31T12:43:24;6.32;;;5.72;;
42944;SDS011;28584;42.636;23.294;2023-07-31T12:45:49;6.60;;;6.00;;
42944;SDS011;28584;42.636;23.294;2023-07-31T12:48:15;6.68;;;6.07;;
42944;SDS011;28584;42.636;23.294;2023-07-31T12:50:40;6.82;;;6.20;;
42944;SDS011;28584;42.636;23.294;2023-07-31T12:53:06;11.32;;;6.28;;
42944;SDS011;28584;42.636;23.294;2023-07-31T12:55:32;5.50;;;5.00;;
42944;SDS011;28584;42.636;23.294;2023-07-31T12:57:59;6.28;;;5.38;;
42944;SDS011;28584;42.636;23.294;2023-07-31T13:00:26;6.63;;;5.90;;
42944;SDS011;28584;42.636;23.294;2023-07-31T13:02:51;7.05;;;6.35;;
42944;SDS011;28584;42.636;23.294;2023-07-31T13:05:17;7.90;;;7.07;;
42944;SDS011;28584;42.636;23.294;2023-07-31T13:07:44;8.13;;;7.32;;
42944;SDS011;28584;42.636;23.294;2023-07-31T13:10:10;7.35;;;6.75;;
42944;SDS011;28584;42.636;23.294;2023-07-31T13:12:35;6.85;;;6.25;;
42944;SDS011;28584;42.636;23.294;2023-07-31T13:15:01;8.52;;;6.78;;
42944;SDS011;28584;42.636;23.294;2023-07-31T13:17:26;8.07;;;6.85;;
42944;SDS011;28584;42.636;23.294;2023-07-31T13:19:52;8.05;;;7.13;;
42944;SDS011;28584;42.636;23.294;2023-07-31T13:22:17;9.77;;;7.22;;
42944;SDS011;28584;42.636;23.294;2023-07-31T13:24:42;7.18;;;6.55;;
42944;SDS011;28584;42.636;23.294;2023-07-31T13:27:08;8.32;;;6.50;;
42944;SDS011;28584;42.636;23.294;2023-07-31T13:29:33;6.90;;;6.20;;
42944;SDS011;28584;42.636;23.294;2023-07-31T13:31:59;6.93;;;6.32;;
42944;SDS011;28584;42.636;23.294;2023-07-31T13:34:24;6.10;;;5.50;;
42944;SDS011;28584;42.636;23.294;2023-07-31T13:36:49;5.70;;;5.25;;
42944;SDS011;28584;42.636;23.294;2023-07-31T13:39:15;5.55;;;4.90;;
42944;SDS011;28584;42.636;23.294;2023-07-31T13:41:40;5.28;;;4.82;;
42944;SDS011;28584;42.636;23.294;2023-07-31T13:44:06;7.43;;;4.63;;
42944;SDS011;28584;42.636;23.294;2023-07-31T13:46:32;4.93;;;4.53;;
42944;SDS011;28584;42.636;23.294;2023-07-31T13:48:58;5.15;;;4.65;;
42944;SDS011;28584;42.636;23.294;2023-07-31T13:51:24;4.75;;;3.92;;
42944;SDS011;28584;42.636;23.294;2023-07-31T13:53:50;4.80;;;3.85;;
42944;SDS011;28584;42.636;23.294;2023-07-31T13:56:16;6.50;;;4.88;;
42944;SDS011;28584;42.636;23.294;2023-07-31T13:58:41;4.55;;;4.15;;
42944;SDS011;28584;42.636;23.294;2023-07-31T14:01:07;4.60;;;4.30;;
42944;SDS011;28584;42.636;23.294;2023-07-31T14:03:32;4.80;;;4.38;;
42944;SDS011;28584;42.636;23.294;2023-07-31T14:05:58;4.63;;;4.10;;
42944;SDS011;28584;42.636;23.294;2023-07-31T14:08:23;5.85;;;4.68;;
42944;SDS011;28584;42.636;23.294;2023-07-31T14:10:49;7.65;;;5.07;;
42944;SDS011;28584;42.636;23.294;2023-07-31T14:13:14;5.07;;;4.68;;
42944;SDS011;28584;42.636;23.294;2023-07-31T14:15:41;5.55;;;4.93;;
42944;SDS011;28584;42.636;23.294;2023-07-31T14:18:08;5.75;;;5.25;;
42944;SDS011;28584;42.636;23.294;2023-07-31T14:20:33;6.10;;;4.72;;
42944;SDS011;28584;42.636;23.294;2023-07-31T14:22:58;5.20;;;4.70;;
42944;SDS011;28584;42.636;23.294;2023-07-31T14:25:24;5.13;;;4.72;;
42944;SDS011;28584;42.636;23.294;2023-07-31T14:27:50;4.25;;;3.95;;
42944;SDS011;28584;42.636;23.294;2023-07-31T14:30:15;7.90;;;4.78;;
42944;SDS011;28584;42.636;23.294;2023-07-31T14:32:42;5.15;;;4.47;;